• Join FlightAware (Why Join?)
  • Login
  • US Flag 
06:45AM EDT


 

Airport Tracker/Info


-or-


 

Live Flight TrackerFlight Track Log ✈ N2441K ✈ 26-Jul-2013 ✈ KIXD - KXNA

Flight Track Log - Related Links

Times and Time Zones

All times are in EDT time to prevent confusion due to time zone crossing. See the N2441K flight status page for this flight to view local times or setup timezone preferences in your user account.

Time Position Orientation Groundspeed Altitude Reporting Facility
EDT Latitude Longitude Course Direction KTS MPH feet Rate Location/Type
10:06AM 38.8500 -94.8833 North 129 148 1,600  Level Kansas City TRACON
10:08AM 38.8983 -94.8817 North 178 205 3,000 1,020 Climbing Kansas City Center
10:09AM 38.9519 -94.8861 356° North 203 234 4,000 420 Climbing Kansas City Center
10:10AM 38.9372 -94.9506 254° West 229 264 3,900 420 Descending Kansas City Center
10:11AM 38.8889 -94.8972 139° Southeast 243 280 4,900 1,140 Climbing Kansas City Center
10:12AM 38.8558 -94.8389 126° Southeast 214 246 6,300 1,440 Climbing Kansas City Center
10:13AM 38.8122 -94.7722 130° Southeast 221 254 7,900 1,380 Climbing Kansas City Center
10:14AM 38.7739 -94.7128 130° Southeast 224 258 9,200 1,380 Climbing Kansas City Center
10:15AM 38.7269 -94.6464 132° Southeast 226 260 10,800 1,380 Climbing Kansas City Center
10:16AM 38.6875 -94.5869 130° Southeast 228 262 12,100 1,260 Climbing Kansas City Center
10:17AM 38.6411 -94.5200 132° Southeast 226 260 13,500 1,200 Climbing Kansas City Center
10:18AM 38.5811 -94.4964 163° South 234 269 14,600 720 Climbing Kansas City Center
10:19AM 38.5214 -94.4914 176° South 226 260 15,000 180 Climbing Kansas City Center
10:20AM 38.4419 -94.4925 181° South 252 290 15,000  Level Kansas City Center
10:21AM 38.3742 -94.4872 177° South 255 293 15,000  Level Kansas City Center
10:22AM 38.2944 -94.4822 177° South 256 295 15,000  Level Kansas City Center
10:23AM 38.2253 -94.4753 175° South 259 298 15,000  Level Kansas City Center
10:24AM 38.1464 -94.4667 175° South 256 295 15,000  Level Kansas City Center
10:25AM 38.0775 -94.4606 176° South 258 297 15,000  Level Kansas City Center
10:26AM 38.0000 -94.4542 176° South 251 289 15,000  Level Kansas City Center
10:27AM 37.9325 -94.4492 177° South 252 290 15,000  Level Kansas City Center
10:28AM 37.8644 -94.4431 176° South 253 291 15,000  Level Kansas City Center
10:29AM 37.7875 -94.4361 176° South 249 287 15,000  Level Kansas City Center
10:30AM 37.7236 -94.4303 176° South 242 278 15,000  Level Kansas City Center
10:31AM 37.6475 -94.4231 176° South 239 275 15,000  Level Kansas City Center
10:32AM 37.5842 -94.4208 178° South 234 269 15,000  Level Kansas City Center
10:33AM 37.5206 -94.4153 176° South 230 265 15,000  Level Kansas City Center
10:34AM 37.4561 -94.4097 176° South 230 265 15,000  Level Kansas City Center
10:35AM 37.3908 -94.4033 176° South 231 266 15,000  Level Kansas City Center
10:36AM 37.3231 -94.3981 176° South 236 272 15,000  Level Kansas City Center
10:37AM 37.2550 -94.3925 176° South 240 276 15,000  Level Kansas City Center
10:38AM 37.1733 -94.3831 175° South 242 278 15,000  Level Kansas City Center
10:39AM 37.1039 -94.3775 176° South 246 283 15,000  Level Kansas City Center
10:41AM 37.0347 -94.3708 176° South 247 284 15,000 -60 Level Kansas City Center
10:42AM 36.9650 -94.3644 176° South 248 285 14,900 -420 Descending Kansas City Center
10:43AM 36.8953 -94.3586 176° South 250 288 14,200 -660 Descending Kansas City Center
10:44AM 36.8306 -94.3533 176° South 245 282 13,600 -840 Descending Kansas City Center
10:45AM 36.7725 -94.3467 175° South 230 265 12,600 -1,200 Descending Kansas City Center
10:46AM 36.7036 -94.3486 181° South 217 250 11,200 -1,260 Descending Kansas City Center
10:47AM 36.6458 -94.3647 193° South 213 245 10,000 -1,260 Descending Kansas City Center
10:48AM 36.5889 -94.3756 189° South 208 239 8,600 -1,500 Descending Kansas City Center
10:49AM 36.5350 -94.3917 194° South 206 237 7,000 -1,560 Descending Kansas City Center
10:50AM 36.4850 -94.4089 195° South 198 228 5,400 -1,620 Descending Kansas City Center
10:51AM 36.4411 -94.3733 147° Southeast 197 227 3,800 -1,260 Descending Kansas City Center
10:52AM 36.3925 -94.3606 168° South 186 214 2,900 -540 Descending Kansas City Center
10:53AM 36.3564 -94.3386 154° Southeast 169 194 2,700 -540 Descending Kansas City Center
10:54AM 36.3208 -94.3272 166° South 137 158 1,900 -540 Descending Kansas City Center
10:55AM 36.2936 -94.3172 164° South 128 147 1,700 -240 Descending Kansas City Center